sensor_id;sensor_type;location;lat;lon;timestamp;temperature;humidity
70300;HTU21D;57704;51.112;5.878;2023-04-25T00:00:14;9.17;67.97
70300;HTU21D;57704;51.112;5.878;2023-04-25T00:02:40;9.16;67.96
70300;HTU21D;57704;51.112;5.878;2023-04-25T00:05:07;9.14;67.96
70300;HTU21D;57704;51.112;5.878;2023-04-25T00:07:34;9.09;68.04
70300;HTU21D;57704;51.112;5.878;2023-04-25T00:10:00;9.08;68.08
70300;HTU21D;57704;51.112;5.878;2023-04-25T00:12:27;9.07;68.11
70300;HTU21D;57704;51.112;5.878;2023-04-25T00:14:55;9.08;68.05
70300;HTU21D;57704;51.112;5.878;2023-04-25T00:17:23;9.04;68.12
70300;HTU21D;57704;51.112;5.878;2023-04-25T00:19:52;9.02;68.13
70300;HTU21D;57704;51.112;5.878;2023-04-25T00:22:18;9.00;68.20
70300;HTU21D;57704;51.112;5.878;2023-04-25T00:24:44;8.97;68.30
70300;HTU21D;57704;51.112;5.878;2023-04-25T00:27:10;8.94;68.33
70300;HTU21D;57704;51.112;5.878;2023-04-25T00:29:37;8.92;68.44
70300;HTU21D;57704;51.112;5.878;2023-04-25T00:32:03;8.89;68.52
70300;HTU21D;57704;51.112;5.878;2023-04-25T00:34:29;8.88;68.57
70300;HTU21D;57704;51.112;5.878;2023-04-25T00:36:55;8.87;68.62
70300;HTU21D;57704;51.112;5.878;2023-04-25T00:39:21;8.88;68.66
70300;HTU21D;57704;51.112;5.878;2023-04-25T00:41:47;8.87;68.72
70300;HTU21D;57704;51.112;5.878;2023-04-25T00:44:15;8.86;68.77
70300;HTU21D;57704;51.112;5.878;2023-04-25T00:46:43;8.83;68.84
70300;HTU21D;57704;51.112;5.878;2023-04-25T00:49:10;8.86;68.89
70300;HTU21D;57704;51.112;5.878;2023-04-25T00:51:41;8.82;68.91
70300;HTU21D;57704;51.112;5.878;2023-04-25T00:54:07;8.82;68.97
70300;HTU21D;57704;51.112;5.878;2023-04-25T00:56:33;8.80;68.99
70300;HTU21D;57704;51.112;5.878;2023-04-25T00:58:59;8.76;69.24
70300;HTU21D;57704;51.112;5.878;2023-04-25T01:01:26;8.75;69.36
70300;HTU21D;57704;51.112;5.878;2023-04-25T01:03:53;8.75;69.36
70300;HTU21D;57704;51.112;5.878;2023-04-25T01:06:20;8.73;69.43
70300;HTU21D;57704;51.112;5.878;2023-04-25T01:08:46;8.75;69.53
70300;HTU21D;57704;51.112;5.878;2023-04-25T01:11:12;8.76;69.68
70300;HTU21D;57704;51.112;5.878;2023-04-25T01:13:38;8.81;69.76
70300;HTU21D;57704;51.112;5.878;2023-04-25T01:16:04;8.85;69.78
70300;HTU21D;57704;51.112;5.878;2023-04-25T01:18:31;8.86;69.74
70300;HTU21D;57704;51.112;5.878;2023-04-25T01:21:10;8.86;69.79
70300;HTU21D;57704;51.112;5.878;2023-04-25T01:23:39;8.89;69.71
70300;HTU21D;57704;51.112;5.878;2023-04-25T01:26:09;8.90;69.66
70300;HTU21D;57704;51.112;5.878;2023-04-25T01:28:36;8.89;69.76
70300;HTU21D;57704;51.112;5.878;2023-04-25T01:31:04;8.90;69.81
70300;HTU21D;57704;51.112;5.878;2023-04-25T01:33:31;8.92;69.77
70300;HTU21D;57704;51.112;5.878;2023-04-25T01:35:57;8.94;69.73
70300;HTU21D;57704;51.112;5.878;2023-04-25T01:38:23;8.95;69.65
70300;HTU21D;57704;51.112;5.878;2023-04-25T01:40:51;8.95;69.76
70300;HTU21D;57704;51.112;5.878;2023-04-25T01:43:19;8.94;69.77
70300;HTU21D;57704;51.112;5.878;2023-04-25T01:45:46;8.89;69.83
70300;HTU21D;57704;51.112;5.878;2023-04-25T01:48:13;8.88;69.88
70300;HTU21D;57704;51.112;5.878;2023-04-25T01:50:41;8.86;69.94
70300;HTU21D;57704;51.112;5.878;2023-04-25T01:53:09;8.86;69.92
70300;HTU21D;57704;51.112;5.878;2023-04-25T01:55:36;8.88;69.92
70300;HTU21D;57704;51.112;5.878;2023-04-25T01:58:08;8.87;69.87
70300;HTU21D;57704;51.112;5.878;2023-04-25T02:00:56;8.87;69.94
70300;HTU21D;57704;51.112;5.878;2023-04-25T02:03:25;8.88;69.99
70300;HTU21D;57704;51.112;5.878;2023-04-25T02:05:51;8.88;70.13
70300;HTU21D;57704;51.112;5.878;2023-04-25T02:08:18;8.89;70.20
70300;HTU21D;57704;51.112;5.878;2023-04-25T02:10:44;8.92;70.12
70300;HTU21D;57704;51.112;5.878;2023-04-25T02:13:33;8.92;70.13
70300;HTU21D;57704;51.112;5.878;2023-04-25T02:16:03;8.91;70.23
70300;HTU21D;57704;51.112;5.878;2023-04-25T02:18:30;8.92;70.34
70300;HTU21D;57704;51.112;5.878;2023-04-25T02:20:59;8.95;70.35
70300;HTU21D;57704;51.112;5.878;2023-04-25T02:23:25;8.97;70.46
70300;HTU21D;57704;51.112;5.878;2023-04-25T02:25:52;9.00;70.40
70300;HTU21D;57704;51.112;5.878;2023-04-25T02:28:19;9.01;70.42
70300;HTU21D;57704;51.112;5.878;2023-04-25T02:30:45;9.03;70.46
70300;HTU21D;57704;51.112;5.878;2023-04-25T02:33:11;9.06;70.39
70300;HTU21D;57704;51.112;5.878;2023-04-25T02:35:37;9.07;70.44
70300;HTU21D;57704;51.112;5.878;2023-04-25T02:38:03;9.09;70.48
70300;HTU21D;57704;51.112;5.878;2023-04-25T02:40:29;9.11;70.42
70300;HTU21D;57704;51.112;5.878;2023-04-25T02:42:56;9.11;70.48
70300;HTU21D;57704;51.112;5.878;2023-04-25T02:45:22;9.12;70.45
70300;HTU21D;57704;51.112;5.878;2023-04-25T02:47:49;9.15;70.48
70300;HTU21D;57704;51.112;5.878;2023-04-25T02:50:15;9.14;70.51
70300;HTU21D;57704;51.112;5.878;2023-04-25T02:52:41;9.14;70.49
70300;HTU21D;57704;51.112;5.878;2023-04-25T02:55:13;9.10;70.43
70300;HTU21D;57704;51.112;5.878;2023-04-25T02:57:40;9.08;70.52
70300;HTU21D;57704;51.112;5.878;2023-04-25T03:00:09;9.04;70.53
70300;HTU21D;57704;51.112;5.878;2023-04-25T03:02:37;9.02;70.68
70300;HTU21D;57704;51.112;5.878;2023-04-25T03:05:03;9.01;70.72
70300;HTU21D;57704;51.112;5.878;2023-04-25T03:07:30;9.03;70.76
70300;HTU21D;57704;51.112;5.878;2023-04-25T03:09:56;9.03;70.74
70300;HTU21D;57704;51.112;5.878;2023-04-25T03:12:23;9.03;70.82
70300;HTU21D;57704;51.112;5.878;2023-04-25T03:14:49;9.03;70.86
70300;HTU21D;57704;51.112;5.878;2023-04-25T03:17:16;9.07;70.81
70300;HTU21D;57704;51.112;5.878;2023-04-25T03:19:42;9.05;70.79
70300;HTU21D;57704;51.112;5.878;2023-04-25T03:22:08;9.05;70.71
70300;HTU21D;57704;51.112;5.878;2023-04-25T03:24:34;9.06;70.68
70300;HTU21D;57704;51.112;5.878;2023-04-25T03:27:02;9.06;70.68
70300;HTU21D;57704;51.112;5.878;2023-04-25T03:29:28;9.05;70.64
70300;HTU21D;57704;51.112;5.878;2023-04-25T03:31:55;9.03;70.66
70300;HTU21D;57704;51.112;5.878;2023-04-25T03:34:22;9.02;70.58
70300;HTU21D;57704;51.112;5.878;2023-04-25T03:36:48;9.01;70.58
70300;HTU21D;57704;51.112;5.878;2023-04-25T03:39:15;8.98;70.56
70300;HTU21D;57704;51.112;5.878;2023-04-25T03:41:46;8.94;70.74
70300;HTU21D;57704;51.112;5.878;2023-04-25T03:44:14;8.94;70.76
70300;HTU21D;57704;51.112;5.878;2023-04-25T03:46:40;8.95;70.77
70300;HTU21D;57704;51.112;5.878;2023-04-25T03:49:07;8.96;70.62
70300;HTU21D;57704;51.112;5.878;2023-04-25T03:51:52;8.93;70.71
70300;HTU21D;57704;51.112;5.878;2023-04-25T03:54:18;8.94;70.74
70300;HTU21D;57704;51.112;5.878;2023-04-25T03:56:57;8.96;70.74
70300;HTU21D;57704;51.112;5.878;2023-04-25T03:59:27;8.97;70.77
70300;HTU21D;57704;51.112;5.878;2023-04-25T04:01:54;9.02;70.71
70300;HTU21D;57704;51.112;5.878;2023-04-25T04:04:20;9.02;70.65
70300;HTU21D;57704;51.112;5.878;2023-04-25T04:06:47;9.01;70.65
70300;HTU21D;57704;51.112;5.878;2023-04-25T04:09:21;9.02;70.77
70300;HTU21D;57704;51.112;5.878;2023-04-25T04:11:47;9.07;70.76
70300;HTU21D;57704;51.112;5.878;2023-04-25T04:14:14;9.06;70.65
70300;HTU21D;57704;51.112;5.878;2023-04-25T04:16:44;9.09;70.60
70300;HTU21D;57704;51.112;5.878;2023-04-25T04:19:10;9.12;70.54
70300;HTU21D;57704;51.112;5.878;2023-04-25T04:21:39;9.06;70.59
70300;HTU21D;57704;51.112;5.878;2023-04-25T04:24:05;9.06;70.64
70300;HTU21D;57704;51.112;5.878;2023-04-25T04:26:42;9.05;70.64
70300;HTU21D;57704;51.112;5.878;2023-04-25T04:29:39;9.02;70.66
70300;HTU21D;57704;51.112;5.878;2023-04-25T04:32:22;9.01;70.72
70300;HTU21D;57704;51.112;5.878;2023-04-25T04:34:49;9.02;70.75
70300;HTU21D;57704;51.112;5.878;2023-04-25T04:37:19;9.02;70.83
70300;HTU21D;57704;51.112;5.878;2023-04-25T04:39:46;9.04;70.87
70300;HTU21D;57704;51.112;5.878;2023-04-25T04:42:37;9.05;70.84
70300;HTU21D;57704;51.112;5.878;2023-04-25T04:45:26;9.10;70.87
70300;HTU21D;57704;51.112;5.878;2023-04-25T04:48:21;9.10;70.65
70300;HTU21D;57704;51.112;5.878;2023-04-25T04:50:58;9.09;70.49
70300;HTU21D;57704;51.112;5.878;2023-04-25T04:53:42;9.03;70.56
70300;HTU21D;57704;51.112;5.878;2023-04-25T04:56:17;9.02;70.58
70300;HTU21D;57704;51.112;5.878;2023-04-25T04:58:59;9.02;70.55
70300;HTU21D;57704;51.112;5.878;2023-04-25T05:01:26;9.01;70.51
70300;HTU21D;57704;51.112;5.878;2023-04-25T05:04:18;9.01;70.49
70300;HTU21D;57704;51.112;5.878;2023-04-25T05:07:05;9.04;70.48
70300;HTU21D;57704;51.112;5.878;2023-04-25T05:09:31;9.07;70.31
70300;HTU21D;57704;51.112;5.878;2023-04-25T05:12:06;9.11;70.26
70300;HTU21D;57704;51.112;5.878;2023-04-25T05:14:51;9.08;70.29
70300;HTU21D;57704;51.112;5.878;2023-04-25T05:17:40;9.14;70.27
70300;HTU21D;57704;51.112;5.878;2023-04-25T05:20:44;9.17;70.13
70300;HTU21D;57704;51.112;5.878;2023-04-25T05:23:20;9.22;70.00
70300;HTU21D;57704;51.112;5.878;2023-04-25T05:26:05;9.24;69.90
70300;HTU21D;57704;51.112;5.878;2023-04-25T05:29:06;9.25;69.92
70300;HTU21D;57704;51.112;5.878;2023-04-25T05:32:05;9.26;69.84
70300;HTU21D;57704;51.112;5.878;2023-04-25T05:34:31;9.33;69.71
70300;HTU21D;57704;51.112;5.878;2023-04-25T05:37:03;9.36;69.46
70300;HTU21D;57704;51.112;5.878;2023-04-25T05:39:30;9.41;69.42
70300;HTU21D;57704;51.112;5.878;2023-04-25T05:42:10;9.49;69.31
70300;HTU21D;57704;51.112;5.878;2023-04-25T05:44:59;9.52;69.03
70300;HTU21D;57704;51.112;5.878;2023-04-25T05:47:35;9.59;68.98
70300;HTU21D;57704;51.112;5.878;2023-04-25T05:50:21;9.60;68.61
70300;HTU21D;57704;51.112;5.878;2023-04-25T05:52:58;9.59;68.78
70300;HTU21D;57704;51.112;5.878;2023-04-25T05:55:44;9.67;68.78
70300;HTU21D;57704;51.112;5.878;2023-04-25T05:58:22;9.72;68.51
70300;HTU21D;57704;51.112;5.878;2023-04-25T06:00:48;9.76;68.38
70300;HTU21D;57704;51.112;5.878;2023-04-25T06:03:14;9.81;68.20
70300;HTU21D;57704;51.112;5.878;2023-04-25T06:05:42;9.86;68.08
70300;HTU21D;57704;51.112;5.878;2023-04-25T06:08:09;9.93;67.87
70300;HTU21D;57704;51.112;5.878;2023-04-25T06:10:37;9.96;67.98
70300;HTU21D;57704;51.112;5.878;2023-04-25T06:13:04;10.03;67.81
70300;HTU21D;57704;51.112;5.878;2023-04-25T06:15:32;10.06;67.56
70300;HTU21D;57704;51.112;5.878;2023-04-25T06:18:00;10.10;67.46
70300;HTU21D;57704;51.112;5.878;2023-04-25T06:20:26;10.08;67.41
70300;HTU21D;57704;51.112;5.878;2023-04-25T06:22:55;10.14;67.43
70300;HTU21D;57704;51.112;5.878;2023-04-25T06:25:29;10.15;67.46
70300;HTU21D;57704;51.112;5.878;2023-04-25T06:27:55;10.23;67.33
70300;HTU21D;57704;51.112;5.878;2023-04-25T06:30:22;10.37;67.09
70300;HTU21D;57704;51.112;5.878;2023-04-25T06:32:55;10.46;67.01
70300;HTU21D;57704;51.112;5.878;2023-04-25T06:35:21;10.64;66.74
70300;HTU21D;57704;51.112;5.878;2023-04-25T06:37:48;10.72;66.24
70300;HTU21D;57704;51.112;5.878;2023-04-25T06:40:14;10.79;65.85
70300;HTU21D;57704;51.112;5.878;2023-04-25T06:42:41;10.83;65.46
70300;HTU21D;57704;51.112;5.878;2023-04-25T06:45:25;10.87;65.18
70300;HTU21D;57704;51.112;5.878;2023-04-25T06:47:53;10.96;64.94
70300;HTU21D;57704;51.112;5.878;2023-04-25T06:50:19;11.02;64.75
70300;HTU21D;57704;51.112;5.878;2023-04-25T06:52:45;11.04;64.38
70300;HTU21D;57704;51.112;5.878;2023-04-25T06:55:11;11.07;63.89
70300;HTU21D;57704;51.112;5.878;2023-04-25T06:58:01;11.11;63.64
70300;HTU21D;57704;51.112;5.878;2023-04-25T07:00:52;11.18;63.45
70300;HTU21D;57704;51.112;5.878;2023-04-25T07:03:21;11.30;62.90
70300;HTU21D;57704;51.112;5.878;2023-04-25T07:05:50;11.33;62.57
70300;HTU21D;57704;51.112;5.878;2023-04-25T07:08:16;11.37;62.14
70300;HTU21D;57704;51.112;5.878;2023-04-25T07:10:43;11.39;62.18
70300;HTU21D;57704;51.112;5.878;2023-04-25T07:13:09;11.43;61.86
70300;HTU21D;57704;51.112;5.878;2023-04-25T07:15:36;11.52;61.59
70300;HTU21D;57704;51.112;5.878;2023-04-25T07:18:05;11.57;61.23
70300;HTU21D;57704;51.112;5.878;2023-04-25T07:20:34;11.68;60.72
70300;HTU21D;57704;51.112;5.878;2023-04-25T07:23:01;11.69;60.29
70300;HTU21D;57704;51.112;5.878;2023-04-25T07:25:28;11.75;60.05
70300;HTU21D;57704;51.112;5.878;2023-04-25T07:27:54;11.89;59.97
70300;HTU21D;57704;51.112;5.878;2023-04-25T07:30:26;11.94;59.76
70300;HTU21D;57704;51.112;5.878;2023-04-25T07:32:54;12.04;59.36
70300;HTU21D;57704;51.112;5.878;2023-04-25T07:35:20;12.12;59.04
70300;HTU21D;57704;51.112;5.878;2023-04-25T07:37:51;12.18;58.50
70300;HTU21D;57704;51.112;5.878;2023-04-25T07:40:37;12.22;57.93
70300;HTU21D;57704;51.112;5.878;2023-04-25T07:43:08;12.20;57.85
70300;HTU21D;57704;51.112;5.878;2023-04-25T07:45:54;12.22;57.67
70300;HTU21D;57704;51.112;5.878;2023-04-25T07:48:21;12.33;57.98
70300;HTU21D;57704;51.112;5.878;2023-04-25T07:50:50;12.50;57.34
70300;HTU21D;57704;51.112;5.878;2023-04-25T07:53:40;12.56;57.08
70300;HTU21D;57704;51.112;5.878;2023-04-25T07:56:12;12.62;56.77
70300;HTU21D;57704;51.112;5.878;2023-04-25T07:58:44;12.62;56.81
70300;HTU21D;57704;51.112;5.878;2023-04-25T08:01:16;12.66;56.58
70300;HTU21D;57704;51.112;5.878;2023-04-25T08:04:09;12.65;56.09
70300;HTU21D;57704;51.112;5.878;2023-04-25T08:07:04;12.67;55.49
70300;HTU21D;57704;51.112;5.878;2023-04-25T08:09:37;12.71;55.29
70300;HTU21D;57704;51.112;5.878;2023-04-25T08:12:08;12.78;54.76
70300;HTU21D;57704;51.112;5.878;2023-04-25T08:14:34;12.70;54.38
70300;HTU21D;57704;51.112;5.878;2023-04-25T08:17:05;12.61;54.65
70300;HTU21D;57704;51.112;5.878;2023-04-25T08:19:33;12.63;54.45
70300;HTU21D;57704;51.112;5.878;2023-04-25T08:22:01;12.59;54.65
70300;HTU21D;57704;51.112;5.878;2023-04-25T08:24:35;12.65;54.46
70300;HTU21D;57704;51.112;5.878;2023-04-25T08:27:02;12.67;54.58
70300;HTU21D;57704;51.112;5.878;2023-04-25T08:29:30;12.74;54.36
70300;HTU21D;57704;51.112;5.878;2023-04-25T08:31:56;12.77;54.01
70300;HTU21D;57704;51.112;5.878;2023-04-25T08:34:22;12.77;53.89
70300;HTU21D;57704;51.112;5.878;2023-04-25T08:36:49;12.78;54.14
70300;HTU21D;57704;51.112;5.878;2023-04-25T08:39:24;12.94;54.11
70300;HTU21D;57704;51.112;5.878;2023-04-25T08:42:23;13.21;54.16
70300;HTU21D;57704;51.112;5.878;2023-04-25T08:44:54;13.51;55.04
70300;HTU21D;57704;51.112;5.878;2023-04-25T08:47:24;13.96;52.75
70300;HTU21D;57704;51.112;5.878;2023-04-25T08:49:56;14.08;52.17
70300;HTU21D;57704;51.112;5.878;2023-04-25T08:52:23;14.24;51.45
70300;HTU21D;57704;51.112;5.878;2023-04-25T08:54:54;14.43;50.86
70300;HTU21D;57704;51.112;5.878;2023-04-25T08:57:22;14.62;50.11
70300;HTU21D;57704;51.112;5.878;2023-04-25T08:59:52;14.57;49.53
70300;HTU21D;57704;51.112;5.878;2023-04-25T09:02:29;14.51;49.59
70300;HTU21D;57704;51.112;5.878;2023-04-25T09:05:25;14.44;49.12
70300;HTU21D;57704;51.112;5.878;2023-04-25T09:08:13;14.37;49.38
70300;HTU21D;57704;51.112;5.878;2023-04-25T09:10:40;14.35;48.72
70300;HTU21D;57704;51.112;5.878;2023-04-25T09:13:14;14.08;49.06
70300;HTU21D;57704;51.112;5.878;2023-04-25T09:15:59;14.04;49.60
70300;HTU21D;57704;51.112;5.878;2023-04-25T09:18:40;14.08;49.50
70300;HTU21D;57704;51.112;5.878;2023-04-25T09:21:12;14.07;49.24
70300;HTU21D;57704;51.112;5.878;2023-04-25T09:23:47;14.00;48.63
70300;HTU21D;57704;51.112;5.878;2023-04-25T09:26:20;13.84;48.96
70300;HTU21D;57704;51.112;5.878;2023-04-25T09:28:47;13.70;49.21
70300;HTU21D;57704;51.112;5.878;2023-04-25T09:31:25;13.52;49.01
70300;HTU21D;57704;51.112;5.878;2023-04-25T09:34:00;13.46;49.60
70300;HTU21D;57704;51.112;5.878;2023-04-25T09:36:42;13.49;49.44
70300;HTU21D;57704;51.112;5.878;2023-04-25T09:39:28;13.56;49.30
70300;HTU21D;57704;51.112;5.878;2023-04-25T09:42:03;13.56;48.55
70300;HTU21D;57704;51.112;5.878;2023-04-25T09:44:33;13.46;48.31
70300;HTU21D;57704;51.112;5.878;2023-04-25T09:46:59;13.37;48.21
70300;HTU21D;57704;51.112;5.878;2023-04-25T09:49:27;13.40;47.85
70300;HTU21D;57704;51.112;5.878;2023-04-25T09:52:02;13.52;48.67
70300;HTU21D;57704;51.112;5.878;2023-04-25T09:54:38;13.86;47.78
70300;HTU21D;57704;51.112;5.878;2023-04-25T09:57:15;13.98;46.89
70300;HTU21D;57704;51.112;5.878;2023-04-25T09:59:49;13.99;46.51
70300;HTU21D;57704;51.112;5.878;2023-04-25T10:02:19;13.90;46.95
70300;HTU21D;57704;51.112;5.878;2023-04-25T10:04:49;13.79;47.11
70300;HTU21D;57704;51.112;5.878;2023-04-25T10:07:25;13.76;47.12
70300;HTU21D;57704;51.112;5.878;2023-04-25T10:09:58;13.78;47.55
70300;HTU21D;57704;51.112;5.878;2023-04-25T10:12:29;13.89;47.26
70300;HTU21D;57704;51.112;5.878;2023-04-25T10:14:58;13.94;46.28
70300;HTU21D;57704;51.112;5.878;2023-04-25T10:17:26;13.97;45.93
70300;HTU21D;57704;51.112;5.878;2023-04-25T10:19:54;14.03;45.78
70300;HTU21D;57704;51.112;5.878;2023-04-25T10:22:37;14.07;45.61
70300;HTU21D;57704;51.112;5.878;2023-04-25T10:25:04;14.20;45.46
70300;HTU21D;57704;51.112;5.878;2023-04-25T10:27:34;14.35;45.37
70300;HTU21D;57704;51.112;5.878;2023-04-25T10:30:02;14.57;44.86
70300;HTU21D;57704;51.112;5.878;2023-04-25T10:32:33;14.88;44.90
70300;HTU21D;57704;51.112;5.878;2023-04-25T10:35:17;15.33;44.11
70300;HTU21D;57704;51.112;5.878;2023-04-25T10:38:08;15.82;43.42
70300;HTU21D;57704;51.112;5.878;2023-04-25T10:40:35;16.06;43.01
70300;HTU21D;57704;51.112;5.878;2023-04-25T10:46:26;16.86;42.26
70300;HTU21D;57704;51.112;5.878;2023-04-25T10:48:57;17.15;41.85
70300;HTU21D;57704;51.112;5.878;2023-04-25T10:51:28;17.50;41.30
70300;HTU21D;57704;51.112;5.878;2023-04-25T10:56:24;18.47;38.40
70300;HTU21D;57704;51.112;5.878;2023-04-25T10:58:50;18.85;38.34
70300;HTU21D;57704;51.112;5.878;2023-04-25T11:01:21;19.51;37.37
70300;HTU21D;57704;51.112;5.878;2023-04-25T11:03:47;20.20;36.24
70300;HTU21D;57704;51.112;5.878;2023-04-25T11:06:31;20.71;34.33
70300;HTU21D;57704;51.112;5.878;2023-04-25T11:09:01;20.51;33.62
70300;HTU21D;57704;51.112;5.878;2023-04-25T11:11:28;19.75;34.02
70300;HTU21D;57704;51.112;5.878;2023-04-25T11:13:55;19.01;35.23
70300;HTU21D;57704;51.112;5.878;2023-04-25T11:16:24;18.37;36.29
70300;HTU21D;57704;51.112;5.878;2023-04-25T11:18:50;17.92;36.88
70300;HTU21D;57704;51.112;5.878;2023-04-25T11:21:17;17.51;37.37
70300;HTU21D;57704;51.112;5.878;2023-04-25T11:23:45;17.01;38.11
70300;HTU21D;57704;51.112;5.878;2023-04-25T11:26:15;16.62;38.87
70300;HTU21D;57704;51.112;5.878;2023-04-25T11:28:45;16.29;39.62
70300;HTU21D;57704;51.112;5.878;2023-04-25T11:31:11;16.02;40.03
70300;HTU21D;57704;51.112;5.878;2023-04-25T11:33:37;15.85;40.52
70300;HTU21D;57704;51.112;5.878;2023-04-25T11:36:04;15.90;40.79
70300;HTU21D;57704;51.112;5.878;2023-04-25T11:38:31;16.14;40.30
70300;HTU21D;57704;51.112;5.878;2023-04-25T11:40:57;16.12;40.21
70300;HTU21D;57704;51.112;5.878;2023-04-25T11:43:25;16.05;40.37
70300;HTU21D;57704;51.112;5.878;2023-04-25T11:45:52;15.98;40.20
70300;HTU21D;57704;51.112;5.878;2023-04-25T11:48:19;15.80;40.20
70300;HTU21D;57704;51.112;5.878;2023-04-25T11:50:46;15.66;40.53
70300;HTU21D;57704;51.112;5.878;2023-04-25T11:53:12;15.58;40.93
70300;HTU21D;57704;51.112;5.878;2023-04-25T11:55:39;15.73;41.46
70300;HTU21D;57704;51.112;5.878;2023-04-25T11:58:06;16.81;39.63
70300;HTU21D;57704;51.112;5.878;2023-04-25T12:00:32;18.39;36.01
70300;HTU21D;57704;51.112;5.878;2023-04-25T12:02:58;19.21;34.27
70300;HTU21D;57704;51.112;5.878;2023-04-25T12:05:28;19.11;33.83
70300;HTU21D;57704;51.112;5.878;2023-04-25T12:07:55;18.79;34.37
70300;HTU21D;57704;51.112;5.878;2023-04-25T12:10:21;18.35;34.54
70300;HTU21D;57704;51.112;5.878;2023-04-25T12:12:48;17.78;35.29
70300;HTU21D;57704;51.112;5.878;2023-04-25T12:15:17;17.24;35.82
70300;HTU21D;57704;51.112;5.878;2023-04-25T12:17:46;16.66;36.43
70300;HTU21D;57704;51.112;5.878;2023-04-25T12:20:16;16.07;38.00
70300;HTU21D;57704;51.112;5.878;2023-04-25T12:22:45;15.59;39.78
70300;HTU21D;57704;51.112;5.878;2023-04-25T12:25:35;14.98;41.81
70300;HTU21D;57704;51.112;5.878;2023-04-25T12:28:29;14.28;44.95
70300;HTU21D;57704;51.112;5.878;2023-04-25T12:31:05;13.81;46.50
70300;HTU21D;57704;51.112;5.878;2023-04-25T12:33:34;13.39;48.06
70300;HTU21D;57704;51.112;5.878;2023-04-25T12:36:01;13.19;49.12
70300;HTU21D;57704;51.112;5.878;2023-04-25T12:38:41;13.06;50.00
70300;HTU21D;57704;51.112;5.878;2023-04-25T12:41:11;13.05;50.27
70300;HTU21D;57704;51.112;5.878;2023-04-25T12:43:37;13.09;50.58
70300;HTU21D;57704;51.112;5.878;2023-04-25T12:46:03;13.19;50.41
70300;HTU21D;57704;51.112;5.878;2023-04-25T12:48:30;13.33;50.03
70300;HTU21D;57704;51.112;5.878;2023-04-25T12:50:57;13.45;49.44
70300;HTU21D;57704;51.112;5.878;2023-04-25T12:53:23;13.62;48.83
70300;HTU21D;57704;51.112;5.878;2023-04-25T12:55:52;13.75;47.49
70300;HTU21D;57704;51.112;5.878;2023-04-25T12:58:19;13.88;47.02
70300;HTU21D;57704;51.112;5.878;2023-04-25T13:00:46;13.94;47.17
70300;HTU21D;57704;51.112;5.878;2023-04-25T13:03:13;14.45;47.25
70300;HTU21D;57704;51.112;5.878;2023-04-25T13:05:40;15.23;45.64
70300;HTU21D;57704;51.112;5.878;2023-04-25T13:08:06;15.33;45.01
70300;HTU21D;57704;51.112;5.878;2023-04-25T13:10:33;15.24;45.10
70300;HTU21D;57704;51.112;5.878;2023-04-25T13:13:02;15.10;45.54
70300;HTU21D;57704;51.112;5.878;2023-04-25T13:15:28;14.99;45.28
70300;HTU21D;57704;51.112;5.878;2023-04-25T13:17:54;14.80;45.49
70300;HTU21D;57704;51.112;5.878;2023-04-25T13:20:22;14.72;45.63
70300;HTU21D;57704;51.112;5.878;2023-04-25T13:22:48;14.73;45.61
70300;HTU21D;57704;51.112;5.878;2023-04-25T13:25:14;14.66;45.36
70300;HTU21D;57704;51.112;5.878;2023-04-25T13:27:41;14.57;45.73
70300;HTU21D;57704;51.112;5.878;2023-04-25T13:30:10;14.59;45.67
70300;HTU21D;57704;51.112;5.878;2023-04-25T13:32:37;14.93;45.55
70300;HTU21D;57704;51.112;5.878;2023-04-25T13:35:11;15.62;44.59
70300;HTU21D;57704;51.112;5.878;2023-04-25T13:37:39;16.27;43.03
70300;HTU21D;57704;51.112;5.878;2023-04-25T13:40:10;16.66;41.93
70300;HTU21D;57704;51.112;5.878;2023-04-25T13:42:38;17.01;39.80
70300;HTU21D;57704;51.112;5.878;2023-04-25T13:45:05;17.14;40.49
70300;HTU21D;57704;51.112;5.878;2023-04-25T13:47:34;17.33;40.32
70300;HTU21D;57704;51.112;5.878;2023-04-25T13:50:00;17.44;39.81
70300;HTU21D;57704;51.112;5.878;2023-04-25T13:52:30;17.56;38.98
70300;HTU21D;57704;51.112;5.878;2023-04-25T13:54:56;17.38;39.38
70300;HTU21D;57704;51.112;5.878;2023-04-25T13:57:22;17.24;39.52
70300;HTU21D;57704;51.112;5.878;2023-04-25T13:59:50;17.05;39.36
70300;HTU21D;57704;51.112;5.878;2023-04-25T14:02:16;17.06;39.91
70300;HTU21D;57704;51.112;5.878;2023-04-25T14:04:42;17.22;39.82
70300;HTU21D;57704;51.112;5.878;2023-04-25T14:07:09;17.38;39.37
70300;HTU21D;57704;51.112;5.878;2023-04-25T14:09:37;17.47;39.34
70300;HTU21D;57704;51.112;5.878;2023-04-25T14:12:06;17.59;38.98
70300;HTU21D;57704;51.112;5.878;2023-04-25T14:14:35;17.64;38.99
70300;HTU21D;57704;51.112;5.878;2023-04-25T14:17:05;17.55;39.03
70300;HTU21D;57704;51.112;5.878;2023-04-25T14:19:32;17.34;39.10
70300;HTU21D;57704;51.112;5.878;2023-04-25T14:22:01;17.13;39.04
70300;HTU21D;57704;51.112;5.878;2023-04-25T14:24:38;16.89;39.17
70300;HTU21D;57704;51.112;5.878;2023-04-25T14:27:08;16.59;38.94
70300;HTU21D;57704;51.112;5.878;2023-04-25T14:29:35;16.28;39.21
70300;HTU21D;57704;51.112;5.878;2023-04-25T14:32:01;16.01;39.46
70300;HTU21D;57704;51.112;5.878;2023-04-25T14:34:28;15.60;40.20
70300;HTU21D;57704;51.112;5.878;2023-04-25T14:36:55;15.38;40.06
70300;HTU21D;57704;51.112;5.878;2023-04-25T14:39:26;15.01;40.36
70300;HTU21D;57704;51.112;5.878;2023-04-25T14:41:52;14.72;40.68
70300;HTU21D;57704;51.112;5.878;2023-04-25T14:44:18;14.47;40.91
70300;HTU21D;57704;51.112;5.878;2023-04-25T14:46:44;14.26;41.49
70300;HTU21D;57704;51.112;5.878;2023-04-25T14:49:11;14.15;41.94
70300;HTU21D;57704;51.112;5.878;2023-04-25T14:51:37;14.06;42.19
70300;HTU21D;57704;51.112;5.878;2023-04-25T14:54:03;13.98;42.26
70300;HTU21D;57704;51.112;5.878;2023-04-25T14:56:33;13.95;41.95
70300;HTU21D;57704;51.112;5.878;2023-04-25T14:59:01;14.01;41.90
70300;HTU21D;57704;51.112;5.878;2023-04-25T15:01:28;14.12;41.80
70300;HTU21D;57704;51.112;5.878;2023-04-25T15:03:54;14.36;41.68
70300;HTU21D;57704;51.112;5.878;2023-04-25T15:06:20;14.57;41.71
70300;HTU21D;57704;51.112;5.878;2023-04-25T15:08:46;15.02;41.00
70300;HTU21D;57704;51.112;5.878;2023-04-25T15:11:12;15.28;40.72
70300;HTU21D;57704;51.112;5.878;2023-04-25T15:13:39;15.52;40.10
70300;HTU21D;57704;51.112;5.878;2023-04-25T15:16:08;15.59;39.23
70300;HTU21D;57704;51.112;5.878;2023-04-25T15:18:34;15.58;39.89
70300;HTU21D;57704;51.112;5.878;2023-04-25T15:21:03;15.75;39.53
70300;HTU21D;57704;51.112;5.878;2023-04-25T15:23:29;15.87;39.01
70300;HTU21D;57704;51.112;5.878;2023-04-25T15:25:56;15.98;38.71
70300;HTU21D;57704;51.112;5.878;2023-04-25T15:28:23;15.92;38.36
70300;HTU21D;57704;51.112;5.878;2023-04-25T15:30:50;15.82;38.61
70300;HTU21D;57704;51.112;5.878;2023-04-25T15:33:16;15.69;38.75
70300;HTU21D;57704;51.112;5.878;2023-04-25T15:35:42;15.39;38.66
70300;HTU21D;57704;51.112;5.878;2023-04-25T15:38:11;15.17;39.01
70300;HTU21D;57704;51.112;5.878;2023-04-25T15:40:38;15.08;39.15
70300;HTU21D;57704;51.112;5.878;2023-04-25T15:43:04;14.97;39.49
70300;HTU21D;57704;51.112;5.878;2023-04-25T15:45:30;15.07;39.60
70300;HTU21D;57704;51.112;5.878;2023-04-25T15:47:57;15.23;39.93